Time;durP1;ratioP1;P1;durP2;ratioP2;P2;SDS_P1;SDS_P2;PMS_P1;PMS_P2;Temp;Humidity;BMP_temperature;BMP_pressure;BME280_temperature;BME280_humidity;BME280_pressure;Samples;Min_cycle;Max_cycle;Signal;HPM_P1;HPM_P2
2022/02/16 00:02:02;;;;;;;12.82;8.30;;;;;;;7.97;100.00;100213.84;5051925;28;20029;-70
2022/02/16 00:04:27;;;;;;;14.45;8.13;;;;;;;7.94;100.00;100211.31;5059487;28;20074;-68
2022/02/16 00:06:52;;;;;;;14.68;7.80;;;;;;;7.94;100.00;100211.31;5072225;28;20029;-70
2022/02/16 00:09:18;;;;;;;13.80;8.32;;;;;;;7.93;100.00;100207.81;5067450;28;20056;-65
2022/02/16 00:11:43;;;;;;;14.63;7.85;;;;;;;7.95;100.00;100208.59;5052146;28;20476;-67
2022/02/16 00:14:08;;;;;;;14.48;7.78;;;;;;;7.93;100.00;100194.66;5052086;28;20441;-66
2022/02/16 00:16:34;;;;;;;13.23;7.18;;;;;;;7.93;100.00;100204.31;5055667;28;20087;-69
2022/02/16 00:18:59;;;;;;;12.25;7.45;;;;;;;7.93;100.00;100191.13;5052235;28;20025;-71
2022/02/16 00:21:24;;;;;;;14.50;7.50;;;;;;;7.93;100.00;100186.75;5051809;28;20396;-70
2022/02/16 00:23:50;;;;;;;14.05;7.93;;;;;;;7.95;100.00;100174.31;5051673;28;20389;-69
2022/02/16 00:26:15;;;;;;;12.95;7.45;;;;;;;7.92;100.00;100187.66;5057247;28;20033;-67
2022/02/16 00:28:40;;;;;;;13.68;8.38;;;;;;;7.94;100.00;100198.13;5071975;28;20094;-67
2022/02/16 00:31:06;;;;;;;13.88;7.95;;;;;;;7.90;100.00;100184.22;5062906;28;20496;-66
2022/02/16 00:33:31;;;;;;;14.80;8.05;;;;;;;7.88;100.00;100178.19;5051914;28;20385;-70
2022/02/16 00:35:56;;;;;;;14.02;7.40;;;;;;;7.86;100.00;100172.09;5054502;28;20511;-65
2022/02/16 00:38:22;;;;;;;12.98;7.18;;;;;;;7.90;100.00;100170.19;5072678;28;20696;-67
2022/02/16 00:40:47;;;;;;;13.13;7.63;;;;;;;7.87;100.00;100176.47;5072123;28;20083;-64
2022/02/16 00:43:12;;;;;;;13.65;7.32;;;;;;;7.84;100.00;100161.63;5055687;28;20017;-69
2022/02/16 00:45:38;;;;;;;11.93;7.25;;;;;;;7.87;100.00;100155.38;5055671;28;20108;-66
2022/02/16 00:48:04;;;;;;;13.45;7.32;;;;;;;7.86;100.00;100140.47;5070353;28;20040;-64
2022/02/16 00:50:29;;;;;;;11.07;6.93;;;;;;;7.87;100.00;100144.81;5057367;28;20395;-66
2022/02/16 00:52:54;;;;;;;13.80;6.47;;;;;;;7.82;100.00;100133.63;5057246;28;20035;-67
2022/02/16 00:55:20;;;;;;;14.23;6.82;;;;;;;7.81;100.00;100124.00;5055126;28;20025;-66
2022/02/16 00:57:45;;;;;;;19.00;6.88;;;;;;;7.79;100.00;100124.09;5062306;28;20521;-69
2022/02/16 01:00:12;;;;;;;15.05;6.97;;;;;;;7.74;100.00;100114.66;5061249;28;20025;-70
2022/02/16 01:02:38;;;;;;;13.82;6.00;;;;;;;7.73;100.00;100115.59;5062276;28;20079;-64
2022/02/16 01:05:04;;;;;;;14.48;5.75;;;;;;;7.73;100.00;100108.53;5037386;28;20029;-65
2022/02/16 01:07:29;;;;;;;14.02;5.32;;;;;;;7.73;100.00;100105.06;5036813;28;20033;-67
2022/02/16 01:09:55;;;;;;;19.85;5.82;;;;;;;7.69;100.00;100097.28;5074663;28;20020;-66
2022/02/16 01:12:20;;;;;;;15.68;6.20;;;;;;;7.68;100.00;100092.91;5069501;28;20071;-67
2022/02/16 01:14:45;;;;;;;16.30;5.60;;;;;;;7.69;100.00;100089.38;5055154;28;20789;-70
2022/02/16 01:17:11;;;;;;;14.30;5.65;;;;;;;7.70;100.00;100088.44;5054994;28;20086;-66
2022/02/16 01:19:36;;;;;;;16.00;6.05;;;;;;;7.70;100.00;100083.19;5067174;28;20035;-66
2022/02/16 01:22:02;;;;;;;18.08;5.70;;;;;;;7.71;100.00;100084.91;5074860;28;20035;-68
2022/02/16 01:24:29;;;;;;;14.55;5.90;;;;;;;7.74;100.00;100078.63;5056864;28;20060;-65
2022/02/16 01:26:54;;;;;;;21.80;6.53;;;;;;;7.78;100.00;100076.72;5054511;28;20021;-66
2022/02/16 01:29:20;;;;;;;20.00;7.13;;;;;;;7.83;100.00;100051.00;5059042;28;20033;-66
2022/02/16 01:31:45;;;;;;;19.33;6.45;;;;;;;7.84;100.00;100040.38;5074755;28;20021;-69
2022/02/16 01:34:10;;;;;;;19.00;6.45;;;;;;;7.83;100.00;100030.75;5062277;28;20060;-65
2022/02/16 01:36:36;;;;;;;18.42;6.75;;;;;;;7.87;100.00;100036.75;5054743;28;20040;-66
2022/02/16 01:39:02;;;;;;;23.48;7.15;;;;;;;7.91;100.00;100037.47;5054028;28;20083;-67
2022/02/16 01:41:28;;;;;;;15.43;6.00;;;;;;;7.92;100.00;100029.47;5070171;28;20032;-64
2022/02/16 01:43:53;;;;;;;15.23;6.00;;;;;;;7.99;100.00;100016.84;5067175;28;20032;-64
2022/02/16 01:46:20;;;;;;;28.80;6.60;;;;;;;7.95;100.00;100008.22;5054478;28;20025;-69
2022/02/16 01:48:45;;;;;;;23.17;6.68;;;;;;;8.02;100.00;100003.53;5053461;28;20084;-67
2022/02/16 01:51:12;;;;;;;21.38;7.05;;;;;;;8.02;100.00;100000.91;5062499;28;20139;-64
2022/02/16 01:53:39;;;;;;;19.70;6.82;;;;;;;8.04;100.00;99991.13;5069851;28;20492;-65
2022/02/16 01:56:04;;;;;;;18.13;6.85;;;;;;;8.08;100.00;99991.84;5034102;28;20029;-69
2022/02/16 01:58:34;;;;;;;21.67;8.00;;;;;;;8.08;100.00;99994.47;5034387;28;20129;-64
2022/02/16 02:01:01;;;;;;;22.50;8.48;;;;;;;8.10;100.00;99990.00;5054980;28;20029;-65
2022/02/16 02:03:27;;;;;;;21.25;7.70;;;;;;;8.06;100.00;99993.69;5034381;28;20025;-65
2022/02/16 02:05:52;;;;;;;17.35;7.50;;;;;;;8.05;100.00;99982.28;5051718;28;20103;-64
2022/02/16 02:08:21;;;;;;;20.95;8.70;;;;;;;8.08;100.00;99981.28;5053882;28;20477;-65
2022/02/16 02:10:53;;;;;;;17.67;9.73;;;;;;;8.07;100.00;99971.66;5050408;28;20032;-64
2022/02/16 02:13:19;;;;;;;18.60;10.10;;;;;;;8.09;100.00;99970.66;5064927;28;20067;-69
2022/02/16 02:15:45;;;;;;;21.58;10.73;;;;;;;8.07;100.00;99964.63;5073893;28;20016;-69
2022/02/16 02:18:15;;;;;;;21.63;10.80;;;;;;;8.12;100.00;99953.84;5073890;28;20040;-69
2022/02/16 02:20:41;;;;;;;26.20;11.55;;;;;;;8.14;100.00;99950.19;5060890;28;20025;-72
2022/02/16 02:23:07;;;;;;;27.60;10.50;;;;;;;8.14;100.00;99960.75;5061268;28;20041;-71
2022/02/16 02:25:50;;;;;;;24.02;10.68;;;;;;;8.15;100.00;99959.81;5073219;28;20101;-66
2022/02/16 02:28:17;;;;;;;23.13;10.85;;;;;;;8.17;100.00;99946.56;5073691;28;20128;-68
2022/02/16 02:30:42;;;;;;;23.45;10.23;;;;;;;8.17;100.00;99950.06;5065559;28;20546;-70
2022/02/16 02:33:08;;;;;;;22.50;11.27;;;;;;;8.14;100.00;99960.75;5055934;28;20029;-63
2022/02/16 02:35:33;;;;;;;23.08;10.88;;;;;;;8.15;100.00;99951.06;5073538;28;20082;-65
2022/02/16 02:37:59;;;;;;;24.33;10.70;;;;;;;8.13;100.00;99937.97;5073629;28;20069;-65
2022/02/16 02:40:24;;;;;;;21.60;10.05;;;;;;;8.16;100.00;99929.03;5070961;28;20329;-65
2022/02/16 02:42:49;;;;;;;26.55;10.05;;;;;;;8.14;100.00;99931.72;5053223;28;20159;-64
2022/02/16 02:45:15;;;;;;;20.33;11.30;;;;;;;8.14;100.00;99917.72;5067584;28;20487;-65
2022/02/16 02:47:41;;;;;;;21.88;12.77;;;;;;;8.14;100.00;99901.88;5073288;28;20423;-65
2022/02/16 02:50:07;;;;;;;25.27;14.13;;;;;;;8.16;100.00;99906.16;5073145;28;20028;-65
2022/02/16 02:52:36;;;;;;;22.77;13.82;;;;;;;8.17;100.00;99897.31;5055460;28;20028;-65
2022/02/16 02:55:01;;;;;;;28.45;14.48;;;;;;;8.14;100.00;99886.91;5059355;28;20163;-65
2022/02/16 02:57:26;;;;;;;25.35;13.55;;;;;;;8.14;100.00;99883.44;5073130;28;20447;-65
2022/02/16 02:59:52;;;;;;;28.80;13.73;;;;;;;8.16;100.00;99887.69;5072728;28;20017;-64
2022/02/16 03:02:17;;;;;;;22.63;13.07;;;;;;;8.20;100.00;99883.13;5059981;28;20138;-64
2022/02/16 03:04:43;;;;;;;20.60;12.52;;;;;;;8.19;100.00;99876.97;5052890;28;20508;-67
2022/02/16 03:07:08;;;;;;;23.10;12.32;;;;;;;8.19;100.00;99869.06;5070887;28;20043;-67
2022/02/16 03:09:34;;;;;;;19.63;11.43;;;;;;;8.23;100.00;99874.19;5072712;28;20472;-64
2022/02/16 03:11:59;;;;;;;20.15;10.88;;;;;;;8.19;100.00;99862.94;5065725;28;20028;-66
2022/02/16 03:14:24;;;;;;;17.75;11.60;;;;;;;8.23;100.00;99868.94;5051950;28;20104;-63
2022/02/16 03:16:50;;;;;;;15.07;10.75;;;;;;;8.25;100.00;99856.50;5062975;28;20029;-65
2022/02/16 03:19:15;;;;;;;18.30;11.32;;;;;;;8.27;100.00;99849.38;5072665;28;20028;-64
2022/02/16 03:21:40;;;;;;;16.00;10.48;;;;;;;8.29;100.00;99834.34;5072805;28;20051;-64
2022/02/16 03:24:07;;;;;;;16.33;10.52;;;;;;;8.31;100.00;99843.88;5053835;28;20469;-66
2022/02/16 03:26:32;;;;;;;18.05;10.80;;;;;;;8.34;100.00;99834.94;5055566;28;20028;-64
2022/02/16 03:28:58;;;;;;;13.57;10.25;;;;;;;8.36;100.00;99828.66;5072453;28;20036;-64
2022/02/16 03:31:23;;;;;;;13.75;9.18;;;;;;;8.33;100.00;99812.97;5072601;28;20029;-68
2022/02/16 03:33:49;;;;;;;13.50;8.40;;;;;;;8.35;100.00;99804.97;5062170;28;20069;-67
2022/02/16 03:36:14;;;;;;;12.82;8.48;;;;;;;8.35;100.00;99783.88;5052775;28;20021;-66
2022/02/16 03:38:39;;;;;;;12.13;8.57;;;;;;;8.32;100.00;99779.59;5067440;28;20044;-65
2022/02/16 03:41:05;;;;;;;12.10;7.55;;;;;;;8.28;100.00;99775.44;5052336;28;20078;-65
2022/02/16 03:43:30;;;;;;;10.68;7.10;;;;;;;8.31;100.00;99783.19;5051945;28;20036;-65
2022/02/16 03:45:55;;;;;;;10.23;6.90;;;;;;;8.34;100.00;99772.47;5052155;28;20028;-67
2022/02/16 03:48:21;;;;;;;11.98;7.00;;;;;;;8.36;100.00;99769.75;5059500;28;20107;-65
2022/02/16 03:50:46;;;;;;;7.50;5.00;;;;;;;8.35;100.00;99771.56;5072106;28;20496;-64
2022/02/16 03:53:11;;;;;;;7.00;4.60;;;;;;;8.35;100.00;99754.84;5072378;28;20067;-65
2022/02/16 03:55:37;;;;;;;8.77;5.00;;;;;;;8.35;100.00;99747.81;5052538;28;20029;-64
2022/02/16 03:58:02;;;;;;;9.02;4.90;;;;;;;8.33;100.00;99764.66;5051958;28;20029;-67
2022/02/16 04:00:27;;;;;;;6.47;4.22;;;;;;;8.31;100.00;99722.53;5053493;28;20059;-65
2022/02/16 04:02:53;;;;;;;8.27;4.50;;;;;;;8.28;100.00;99743.78;5072301;28;20060;-67
2022/02/16 04:05:19;;;;;;;8.07;4.40;;;;;;;8.31;100.00;99719.03;5058085;28;20287;-64
2022/02/16 04:07:44;;;;;;;9.05;5.28;;;;;;;8.30;100.00;99723.47;5051862;28;20028;-65
2022/02/16 04:10:09;;;;;;;7.80;4.80;;;;;;;8.33;100.00;99722.44;5064026;28;20028;-66
2022/02/16 04:12:35;;;;;;;8.95;5.50;;;;;;;8.32;100.00;99713.66;5073557;28;20126;-69
2022/02/16 04:15:00;;;;;;;10.02;5.70;;;;;;;8.31;100.00;99705.84;5067433;28;20035;-70
2022/02/16 04:17:25;;;;;;;8.25;5.43;;;;;;;8.31;100.00;99692.66;5056260;28;20098;-71
2022/02/16 04:19:51;;;;;;;7.47;5.60;;;;;;;8.27;100.00;99699.03;5060293;28;20040;-68
2022/02/16 04:22:17;;;;;;;8.73;6.20;;;;;;;8.23;100.00;99682.50;5058050;28;20101;-68
2022/02/16 04:24:43;;;;;;;9.57;6.72;;;;;;;8.20;100.00;99678.25;5076050;28;20021;-69
2022/02/16 04:27:09;;;;;;;12.68;8.55;;;;;;;8.17;100.00;99681.06;5055495;28;20028;-70
2022/02/16 04:29:35;;;;;;;10.90;7.38;;;;;;;8.16;100.00;99681.16;5055898;28;20074;-70
2022/02/16 04:32:00;;;;;;;9.77;6.93;;;;;;;8.16;100.00;99691.72;5071554;28;20147;-70
2022/02/16 04:34:26;;;;;;;10.25;7.65;;;;;;;8.13;100.00;99654.94;5076053;28;20025;-70
2022/02/16 04:36:51;;;;;;;11.00;8.02;;;;;;;8.13;100.00;99652.31;5063349;28;20091;-67
2022/02/16 04:39:16;;;;;;;13.93;8.55;;;;;;;8.09;100.00;99638.44;5055774;28;20548;-66
2022/02/16 04:41:42;;;;;;;13.07;9.10;;;;;;;8.11;100.00;99630.47;5062637;28;20032;-67
2022/02/16 04:44:07;;;;;;;14.35;9.73;;;;;;;8.10;100.00;99629.59;5075462;28;20025;-68
2022/02/16 04:46:33;;;;;;;16.25;10.38;;;;;;;8.09;100.00;99616.50;5068554;28;20396;-65
2022/02/16 04:48:58;;;;;;;14.45;9.30;;;;;;;8.11;100.00;99604.94;5055490;28;20025;-64
2022/02/16 04:51:24;;;;;;;15.50;10.07;;;;;;;8.12;100.00;99600.50;5055092;28;20041;-64
2022/02/16 04:53:49;;;;;;;14.93;9.88;;;;;;;8.12;100.00;99606.63;5075202;28;20048;-65
2022/02/16 04:56:16;;;;;;;16.17;9.52;;;;;;;8.12;100.00;99588.19;5073692;28;20024;-66
2022/02/16 04:58:41;;;;;;;14.32;9.18;;;;;;;8.12;100.00;99584.66;5055333;28;20103;-64
2022/02/16 05:01:06;;;;;;;11.45;8.85;;;;;;;8.14;100.00;99581.00;5055277;28;20521;-66
2022/02/16 05:03:32;;;;;;;13.98;8.95;;;;;;;8.15;100.00;99587.16;5054843;28;20025;-69
2022/02/16 05:05:57;;;;;;;11.02;8.27;;;;;;;8.14;100.00;99573.09;5057320;28;20062;-66
2022/02/16 05:08:22;;;;;;;11.25;8.25;;;;;;;8.14;100.00;99585.44;5057644;28;20031;-63
2022/02/16 05:10:48;;;;;;;10.95;7.60;;;;;;;8.15;100.00;99580.09;5065156;28;20032;-71
2022/02/16 05:13:13;;;;;;;11.38;7.60;;;;;;;8.15;100.00;99566.91;5072569;28;20100;-68
2022/02/16 05:15:38;;;;;;;9.73;7.18;;;;;;;8.19;100.00;99560.50;5072394;28;20028;-71
2022/02/16 05:18:04;;;;;;;10.98;7.80;;;;;;;8.21;100.00;99560.44;5057087;28;20108;-72
2022/02/16 05:20:29;;;;;;;10.93;6.97;;;;;;;8.24;100.00;99559.44;5037012;28;20477;-65
2022/02/16 05:22:54;;;;;;;10.00;7.18;;;;;;;8.25;100.00;99547.91;5054405;28;20033;-65
2022/02/16 05:25:20;;;;;;;9.80;7.45;;;;;;;8.27;100.00;99540.78;5053379;28;20025;-71
2022/02/16 05:27:45;;;;;;;10.43;6.95;;;;;;;8.30;100.00;99538.84;5054830;28;20029;-73
2022/02/16 05:30:13;;;;;;;9.82;6.88;;;;;;;8.31;100.00;99535.25;5055009;28;20029;-71
2022/02/16 05:32:39;;;;;;;9.20;6.78;;;;;;;8.37;100.00;99531.41;5054730;28;20024;-67
2022/02/16 05:35:05;;;;;;;11.32;7.40;;;;;;;8.39;100.00;99505.81;5053929;28;20021;-72
2022/02/16 05:37:30;;;;;;;10.13;7.07;;;;;;;8.41;100.00;99488.09;5058280;28;20028;-66
2022/02/16 05:39:55;;;;;;;9.73;7.53;;;;;;;8.42;100.00;99487.16;5074350;28;20094;-73
2022/02/16 05:42:21;;;;;;;10.07;7.43;;;;;;;8.45;100.00;99476.44;5074549;28;20066;-72
2022/02/16 05:44:46;;;;;;;12.57;7.03;;;;;;;8.51;100.00;99470.81;5064489;28;20021;-65
2022/02/16 05:47:12;;;;;;;10.98;6.68;;;;;;;8.52;100.00;99482.25;5053946;28;20029;-74
2022/02/16 05:49:37;;;;;;;7.97;6.40;;;;;;;8.52;100.00;99461.13;5035776;28;20056;-67
2022/02/16 05:52:03;;;;;;;9.32;6.40;;;;;;;8.55;100.00;99473.28;5054030;28;20045;-66
2022/02/16 05:54:28;;;;;;;8.63;6.13;;;;;;;8.58;100.00;99467.81;5054528;28;20469;-66
2022/02/16 05:56:53;;;;;;;7.10;5.32;;;;;;;8.57;100.00;99480.19;5057168;28;20025;-67
2022/02/16 05:59:19;;;;;;;8.52;5.28;;;;;;;8.60;100.00;99485.28;5054245;28;20124;-69
2022/02/16 06:01:44;;;;;;;8.50;5.45;;;;;;;8.61;100.00;99471.16;5053867;28;20047;-73
2022/02/16 06:04:12;;;;;;;7.55;4.72;;;;;;;8.60;100.00;99440.41;5056960;28;20025;-69
2022/02/16 06:06:38;;;;;;;6.82;4.60;;;;;;;8.62;100.00;99442.94;5055622;28;20085;-71
2022/02/16 06:09:03;;;;;;;8.60;4.47;;;;;;;8.64;100.00;99475.38;5073654;28;20475;-74
2022/02/16 06:11:29;;;;;;;6.88;4.35;;;;;;;8.63;100.00;99469.28;5074268;28;20032;-72
2022/02/16 06:13:55;;;;;;;8.63;4.30;;;;;;;8.64;100.00;99464.84;5073745;28;20356;-69
2022/02/16 06:16:20;;;;;;;8.52;4.45;;;;;;;8.64;100.00;99465.66;5069152;28;20033;-68
2022/02/16 06:18:45;;;;;;;6.32;3.60;;;;;;;8.67;100.00;99448.81;5069415;28;20056;-67
2022/02/16 06:21:11;;;;;;;5.38;3.28;;;;;;;8.70;100.00;99461.84;5063343;28;20032;-72
2022/02/16 06:23:36;;;;;;;10.00;3.83;;;;;;;8.69;100.00;99463.59;5053761;28;20031;-73
2022/02/16 06:26:01;;;;;;;5.85;3.58;;;;;;;8.73;100.00;99447.59;5039008;28;20044;-65
2022/02/16 06:28:27;;;;;;;5.70;3.28;;;;;;;8.75;100.00;99443.09;5060141;28;20082;-72
2022/02/16 06:30:52;;;;;;;7.22;4.00;;;;;;;8.76;100.00;99457.97;5073599;28;20451;-72
2022/02/16 06:33:18;;;;;;;5.82;3.60;;;;;;;8.79;100.00;99413.78;5070889;28;20429;-71
2022/02/16 06:35:43;;;;;;;7.20;3.72;;;;;;;8.82;100.00;99457.59;5040999;28;20035;-72
2022/02/16 06:38:10;;;;;;;7.63;3.97;;;;;;;8.82;100.00;99461.13;5048145;28;20039;-66
2022/02/16 06:40:35;;;;;;;7.03;4.65;;;;;;;8.83;100.00;99473.34;5053345;28;20029;-72
2022/02/16 06:43:01;;;;;;;7.45;4.68;;;;;;;8.85;100.00;99449.53;5052855;28;20083;-73
2022/02/16 06:45:27;;;;;;;7.50;4.97;;;;;;;8.87;100.00;99476.66;5053097;28;20029;-69
2022/02/16 06:47:52;;;;;;;8.93;5.45;;;;;;;8.89;100.00;99473.94;5055900;28;20044;-71
2022/02/16 06:50:17;;;;;;;7.78;5.18;;;;;;;8.89;100.00;99455.44;5043312;28;20461;-73
2022/02/16 06:52:43;;;;;;;8.85;4.65;;;;;;;8.96;100.00;99467.34;5052816;28;20104;-72
2022/02/16 06:55:09;;;;;;;6.78;4.25;;;;;;;9.01;100.00;99474.06;5049370;28;20033;-63
2022/02/16 06:57:35;;;;;;;7.40;4.90;;;;;;;9.03;100.00;99476.59;5052638;28;20032;-66
2022/02/16 07:00:00;;;;;;;6.65;4.03;;;;;;;9.07;100.00;99462.28;5052964;28;20439;-65
2022/02/16 07:02:25;;;;;;;7.32;4.28;;;;;;;9.08;100.00;99457.81;5052789;28;20370;-64
2022/02/16 07:04:52;;;;;;;8.23;4.40;;;;;;;9.08;100.00;99465.75;5053133;28;20025;-64
2022/02/16 07:07:17;;;;;;;9.05;4.40;;;;;;;9.14;100.00;99452.19;5072773;28;20063;-64
2022/02/16 07:09:43;;;;;;;7.57;4.32;;;;;;;9.15;100.00;99470.56;5064326;28;20476;-64
2022/02/16 07:12:09;;;;;;;9.10;5.00;;;;;;;9.20;100.00;99472.09;5072619;28;20051;-65
2022/02/16 07:14:34;;;;;;;14.13;4.88;;;;;;;9.22;100.00;99475.47;5073140;28;20047;-64
2022/02/16 07:16:59;;;;;;;9.88;5.38;;;;;;;9.24;100.00;99478.88;5072243;28;20388;-64
2022/02/16 07:19:26;;;;;;;11.68;5.90;;;;;;;9.26;100.00;99484.91;5067612;28;20033;-64
2022/02/16 07:21:52;;;;;;;13.02;6.00;;;;;;;9.33;100.00;99487.09;5072331;28;20389;-64
2022/02/16 07:24:17;;;;;;;13.30;5.90;;;;;;;9.34;100.00;99453.59;5046851;28;20021;-65
2022/02/16 07:26:43;;;;;;;15.32;6.38;;;;;;;9.40;100.00;99473.50;5045002;28;20396;-63
2022/02/16 07:29:08;;;;;;;15.90;6.50;;;;;;;9.45;100.00;99477.56;5069342;28;20085;-65
2022/02/16 07:31:33;;;;;;;14.20;6.13;;;;;;;9.49;100.00;99489.63;5052833;28;20155;-64
2022/02/16 07:33:59;;;;;;;17.40;6.50;;;;;;;9.52;100.00;99484.16;5052128;28;20343;-64
2022/02/16 07:36:24;;;;;;;17.23;6.82;;;;;;;9.56;100.00;99486.63;5052259;28;20162;-64
2022/02/16 07:38:49;;;;;;;14.90;6.60;;;;;;;9.58;100.00;99490.88;5057842;28;20029;-64
2022/02/16 07:41:15;;;;;;;19.98;5.80;;;;;;;9.63;100.00;99485.25;5065660;28;20031;-62
2022/02/16 07:43:41;;;;;;;16.25;6.63;;;;;;;9.62;100.00;99484.44;5073017;28;20134;-66
2022/02/16 07:46:07;;;;;;;12.90;5.18;;;;;;;9.71;100.00;99496.22;5052640;28;20017;-65
2022/02/16 07:48:32;;;;;;;16.08;5.47;;;;;;;9.72;100.00;99508.50;5061524;28;20036;-66
2022/02/16 07:50:57;;;;;;;19.17;5.60;;;;;;;9.76;100.00;99509.16;5054628;28;20389;-64
2022/02/16 07:53:23;;;;;;;17.42;5.13;;;;;;;9.79;100.00;99498.38;5052688;28;20039;-68
2022/02/16 07:55:48;;;;;;;14.93;3.65;;;;;;;9.86;100.00;99505.00;5043107;28;20181;-64
2022/02/16 07:58:13;;;;;;;15.68;3.67;;;;;;;9.90;100.00;99522.34;5047491;28;20120;-64
2022/02/16 08:00:39;;;;;;;15.02;3.40;;;;;;;9.95;100.00;99528.19;5072453;28;20040;-74
2022/02/16 08:03:05;;;;;;;17.98;4.22;;;;;;;9.96;100.00;99519.31;5071765;28;20100;-70
2022/02/16 08:05:31;;;;;;;18.17;4.03;;;;;;;9.95;100.00;99525.56;5071441;28;20021;-70
2022/02/16 08:07:56;;;;;;;15.60;3.30;;;;;;;9.99;100.00;99532.34;5054554;28;20048;-69
2022/02/16 08:10:23;;;;;;;21.38;3.90;;;;;;;9.99;100.00;99520.94;5066026;28;20090;-70
2022/02/16 08:12:57;;;;;;;17.63;3.03;;;;;;;10.02;100.00;99526.00;5052469;28;20104;-72
2022/02/16 08:15:24;;;;;;;23.77;3.80;;;;;;;9.99;100.00;99537.63;5051935;28;20032;-74
2022/02/16 08:17:50;;;;;;;15.60;3.70;;;;;;;10.00;100.00;99499.66;5049966;28;20032;-74
2022/02/16 08:20:15;;;;;;;20.02;4.13;;;;;;;10.02;100.00;99531.28;5054188;28;20021;-71
2022/02/16 08:22:41;;;;;;;14.90;4.47;;;;;;;10.07;100.00;99526.56;5052125;28;20021;-74
2022/02/16 08:25:07;;;;;;;19.05;4.38;;;;;;;10.07;100.00;99533.66;5055212;28;20393;-67
2022/02/16 08:27:33;;;;;;;18.20;4.25;;;;;;;10.10;100.00;99523.75;5070868;28;20060;-72
2022/02/16 08:29:59;;;;;;;22.00;4.35;;;;;;;10.13;100.00;99509.47;5067293;28;20055;-71
2022/02/16 08:32:24;;;;;;;23.58;4.15;;;;;;;10.17;100.00;99516.25;5071764;28;20527;-73
2022/02/16 08:34:50;;;;;;;21.52;4.70;;;;;;;10.20;100.00;99531.91;5058752;28;20040;-72
2022/02/16 08:37:16;;;;;;;22.13;4.05;;;;;;;10.22;100.00;99508.88;5037757;28;20124;-71
2022/02/16 08:39:41;;;;;;;27.60;4.60;;;;;;;10.27;100.00;99509.41;5041807;28;20481;-73
2022/02/16 08:42:07;;;;;;;23.40;4.50;;;;;;;10.30;100.00;99519.78;5042698;28;20060;-64
2022/02/16 08:44:32;;;;;;;27.15;6.22;;;;;;;10.33;100.00;99518.75;5050517;28;20492;-70
2022/02/16 08:46:58;;;;;;;30.38;4.30;;;;;;;10.36;100.00;99500.06;5045058;28;20028;-71
2022/02/16 08:49:23;;;;;;;21.02;4.20;;;;;;;10.42;100.00;99533.22;5049005;28;20384;-71
2022/02/16 08:51:49;;;;;;;22.85;4.30;;;;;;;10.45;100.00;99525.09;5041891;28;20041;-69
2022/02/16 08:54:15;;;;;;;22.88;4.88;;;;;;;10.47;100.00;99528.47;5047041;28;20080;-66
2022/02/16 08:56:41;;;;;;;24.65;4.68;;;;;;;10.53;100.00;99545.75;5053496;28;20032;-73
2022/02/16 08:59:07;;;;;;;24.48;4.53;;;;;;;10.56;100.00;99533.16;5052013;28;20024;-73
2022/02/16 09:01:33;;;;;;;22.92;4.75;;;;;;;10.65;100.00;99539.63;5075316;28;20040;-66
2022/02/16 09:04:00;;;;;;;25.65;4.53;;;;;;;10.69;100.00;99549.09;5074904;28;20029;-73
2022/02/16 09:06:26;;;;;;;22.45;4.20;;;;;;;10.72;100.00;99543.59;5071525;28;20031;-72
2022/02/16 09:08:51;;;;;;;22.48;4.47;;;;;;;10.81;100.00;99550.91;5054757;28;20036;-73
2022/02/16 09:11:17;;;;;;;27.10;4.25;;;;;;;10.87;100.00;99530.25;5054952;28;20061;-71
2022/02/16 09:13:43;;;;;;;23.52;4.30;;;;;;;10.88;100.00;99532.84;5063553;28;20032;-69
2022/02/16 09:16:08;;;;;;;22.58;4.20;;;;;;;10.91;100.00;99531.78;5058003;28;20017;-64
2022/02/16 09:18:33;;;;;;;16.70;3.47;;;;;;;11.05;100.00;99538.75;5063688;28;20029;-69
2022/02/16 09:21:05;;;;;;;24.10;4.00;;;;;;;11.13;100.00;99547.06;5060054;28;20020;-70
2022/02/16 09:23:30;;;;;;;19.88;4.00;;;;;;;11.18;100.00;99513.16;5042513;28;20033;-71
2022/02/16 09:25:56;;;;;;;20.52;3.80;;;;;;;11.18;100.00;99537.00;5058357;28;20465;-70
2022/02/16 09:28:21;;;;;;;23.95;4.38;;;;;;;11.18;100.00;99515.78;5068926;28;20080;-65
2022/02/16 09:30:46;;;;;;;16.92;3.53;;;;;;;11.30;100.00;99527.34;5058299;28;20021;-67
2022/02/16 09:33:11;;;;;;;24.27;4.35;;;;;;;11.47;100.00;99516.44;5053811;28;20441;-65
2022/02/16 09:35:37;;;;;;;20.25;3.75;;;;;;;11.46;100.00;99546.53;5041974;28;20079;-63
2022/02/16 09:38:02;;;;;;;20.48;3.95;;;;;;;11.45;100.00;99486.50;5046216;28;20485;-68
2022/02/16 09:40:30;;;;;;;19.85;4.80;;;;;;;11.44;100.00;99543.13;5051935;28;20025;-64
2022/02/16 09:43:00;;;;;;;22.15;4.00;;;;;;;11.44;100.00;99534.34;5045406;28;20122;-68
2022/02/16 09:45:29;;;;;;;21.08;4.00;;;;;;;11.41;100.00;99547.81;5054106;28;20076;-65
2022/02/16 09:47:54;;;;;;;19.35;3.72;;;;;;;11.48;100.00;99533.16;5037514;28;20025;-68
2022/02/16 09:50:19;;;;;;;26.27;4.55;;;;;;;11.65;100.00;99539.97;5050141;28;20044;-69
2022/02/16 09:52:45;;;;;;;20.15;3.42;;;;;;;11.73;100.00;99537.59;5035653;28;20029;-69
2022/02/16 09:55:11;;;;;;;15.15;3.47;;;;;;;11.81;100.00;99518.50;5040905;28;20040;-68
2022/02/16 09:57:37;;;;;;;13.98;3.20;;;;;;;11.88;100.00;99518.91;5042280;28;20025;-68
2022/02/16 10:00:04;;;;;;;15.07;3.42;;;;;;;11.90;100.00;99540.88;5049031;28;20032;-71
2022/02/16 10:02:40;;;;;;;16.52;4.07;;;;;;;11.91;100.00;99556.66;5037795;28;20033;-67
2022/02/16 10:05:08;;;;;;;14.27;3.25;;;;;;;11.80;100.00;99532.72;5068946;28;20033;-70
2022/02/16 10:07:38;;;;;;;14.98;3.88;;;;;;;11.77;100.00;99531.13;5052131;28;20116;-69
2022/02/16 10:10:18;;;;;;;18.60;3.30;;;;;;;11.79;100.00;99523.91;5051506;28;20052;-70
2022/02/16 10:12:47;;;;;;;15.40;2.53;;;;;;;11.74;100.00;99533.13;5045234;28;20168;-70
2022/02/16 10:15:15;;;;;;;21.25;4.15;;;;;;;11.68;100.00;99528.28;5033989;28;20030;-68
2022/02/16 10:17:40;;;;;;;27.45;5.47;;;;;;;11.68;100.00;99485.88;5048428;28;20029;-69
2022/02/16 10:20:09;;;;;;;23.25;5.45;;;;;;;11.64;100.00;99504.63;5072166;28;20027;-69
2022/02/16 10:22:45;;;;;;;23.23;3.30;;;;;;;11.63;100.00;99459.66;5043629;28;20032;-65
2022/02/16 10:25:17;;;;;;;13.88;3.20;;;;;;;11.57;100.00;99508.69;5032149;28;20399;-68
2022/02/16 10:28:04;;;;;;;13.48;2.75;;;;;;;11.51;100.00;99481.75;5048795;28;20134;-68
2022/02/16 10:30:29;;;;;;;18.88;3.30;;;;;;;11.51;100.00;99485.25;5067022;28;20048;-70
2022/02/16 10:33:15;;;;;;;20.73;3.53;;;;;;;11.47;100.00;99497.00;5037319;28;20035;-68
2022/02/16 10:35:41;;;;;;;17.13;2.78;;;;;;;11.46;100.00;99505.94;5053609;28;20025;-68
2022/02/16 10:38:06;;;;;;;15.18;3.05;;;;;;;11.52;100.00;99472.84;5049043;28;20061;-70
2022/02/16 10:40:31;;;;;;;23.05;3.88;;;;;;;11.53;100.00;99504.53;5062256;28;20384;-72
2022/02/16 10:43:01;;;;;;;17.25;3.20;;;;;;;11.53;100.00;99501.88;5051438;28;20366;-63
2022/02/16 10:45:29;;;;;;;17.13;3.13;;;;;;;11.54;100.00;99506.22;5033118;28;20053;-66
2022/02/16 10:48:07;;;;;;;15.10;2.75;;;;;;;11.53;100.00;99509.84;5045836;28;20134;-71
2022/02/16 10:50:37;;;;;;;21.95;3.80;;;;;;;11.56;100.00;99493.72;5048344;28;20072;-70
2022/02/16 10:53:04;;;;;;;15.80;2.90;;;;;;;11.56;100.00;99525.53;5047455;28;20021;-71
2022/02/16 10:55:40;;;;;;;18.23;3.13;;;;;;;11.53;100.00;99514.31;5040057;28;20433;-70
2022/02/16 10:58:12;;;;;;;15.85;3.42;;;;;;;11.53;100.00;99562.84;5047870;28;20025;-71
2022/02/16 11:00:39;;;;;;;19.63;3.50;;;;;;;11.52;100.00;99573.56;5053454;28;20033;-71
2022/02/16 11:03:06;;;;;;;17.65;3.95;;;;;;;11.50;100.00;99554.28;5045032;28;20033;-70
2022/02/16 11:05:35;;;;;;;19.02;3.05;;;;;;;11.50;100.00;99559.59;5051444;28;20481;-71
2022/02/16 11:08:02;;;;;;;14.52;3.03;;;;;;;11.53;100.00;99552.25;5060287;28;20378;-69
2022/02/16 11:10:28;;;;;;;18.13;3.25;;;;;;;11.54;100.00;99539.88;5037167;28;20022;-69
2022/02/16 11:12:56;;;;;;;15.77;3.20;;;;;;;11.53;100.00;99528.41;5032565;28;20037;-68
2022/02/16 11:15:22;;;;;;;13.68;2.85;;;;;;;11.47;100.00;99537.63;5033463;28;20017;-70
2022/02/16 11:17:48;;;;;;;16.98;3.75;;;;;;;11.49;100.00;99526.91;5032507;28;20026;-70